sensor_id;sensor_type;location;lat;lon;timestamp;P1;durP1;ratioP1;P2;durP2;ratioP2
59659;SDS011;45534;52.690;6.268;2023-02-15T00:01:49;14.00;;;6.72;;
59659;SDS011;45534;52.690;6.268;2023-02-15T00:04:16;12.50;;;8.05;;
59659;SDS011;45534;52.690;6.268;2023-02-15T00:06:43;15.45;;;10.32;;
59659;SDS011;45534;52.690;6.268;2023-02-15T00:09:09;13.27;;;8.07;;
59659;SDS011;45534;52.690;6.268;2023-02-15T00:11:36;6.90;;;4.82;;
59659;SDS011;45534;52.690;6.268;2023-02-15T00:14:05;15.88;;;9.20;;
59659;SDS011;45534;52.690;6.268;2023-02-15T00:16:37;13.40;;;7.93;;
59659;SDS011;45534;52.690;6.268;2023-02-15T00:19:04;10.85;;;6.72;;
59659;SDS011;45534;52.690;6.268;2023-02-15T00:21:30;20.10;;;10.27;;
59659;SDS011;45534;52.690;6.268;2023-02-15T00:23:58;14.40;;;10.63;;
59659;SDS011;45534;52.690;6.268;2023-02-15T00:26:25;11.80;;;9.02;;
59659;SDS011;45534;52.690;6.268;2023-02-15T00:28:52;19.17;;;10.93;;
59659;SDS011;45534;52.690;6.268;2023-02-15T00:31:18;15.90;;;9.77;;
59659;SDS011;45534;52.690;6.268;2023-02-15T00:33:44;15.23;;;9.30;;
59659;SDS011;45534;52.690;6.268;2023-02-15T00:36:10;13.15;;;7.47;;
59659;SDS011;45534;52.690;6.268;2023-02-15T00:38:36;5.20;;;4.20;;
59659;SDS011;45534;52.690;6.268;2023-02-15T00:41:03;14.45;;;10.52;;
59659;SDS011;45534;52.690;6.268;2023-02-15T00:43:32;16.67;;;9.43;;
59659;SDS011;45534;52.690;6.268;2023-02-15T00:45:58;18.35;;;11.38;;
59659;SDS011;45534;52.690;6.268;2023-02-15T00:48:24;14.07;;;9.23;;
59659;SDS011;45534;52.690;6.268;2023-02-15T00:50:56;9.85;;;6.95;;
59659;SDS011;45534;52.690;6.268;2023-02-15T00:53:24;11.65;;;8.20;;
59659;SDS011;45534;52.690;6.268;2023-02-15T00:55:51;16.08;;;10.00;;
59659;SDS011;45534;52.690;6.268;2023-02-15T00:58:17;24.40;;;9.90;;
59659;SDS011;45534;52.690;6.268;2023-02-15T01:00:43;13.20;;;7.82;;
59659;SDS011;45534;52.690;6.268;2023-02-15T01:03:10;18.15;;;9.23;;
59659;SDS011;45534;52.690;6.268;2023-02-15T01:05:37;20.80;;;11.88;;
59659;SDS011;45534;52.690;6.268;2023-02-15T01:08:02;16.52;;;10.57;;
59659;SDS011;45534;52.690;6.268;2023-02-15T01:10:28;16.48;;;8.70;;
59659;SDS011;45534;52.690;6.268;2023-02-15T01:12:54;17.45;;;9.07;;
59659;SDS011;45534;52.690;6.268;2023-02-15T01:15:21;18.73;;;12.82;;
59659;SDS011;45534;52.690;6.268;2023-02-15T01:17:46;16.92;;;10.60;;
59659;SDS011;45534;52.690;6.268;2023-02-15T01:20:18;15.23;;;11.10;;
59659;SDS011;45534;52.690;6.268;2023-02-15T01:22:44;18.17;;;10.63;;
59659;SDS011;45534;52.690;6.268;2023-02-15T01:25:12;13.65;;;10.25;;
59659;SDS011;45534;52.690;6.268;2023-02-15T01:27:37;13.63;;;10.90;;
59659;SDS011;45534;52.690;6.268;2023-02-15T01:30:03;17.05;;;10.75;;
59659;SDS011;45534;52.690;6.268;2023-02-15T01:32:29;17.70;;;13.15;;
59659;SDS011;45534;52.690;6.268;2023-02-15T01:34:56;17.40;;;12.35;;
59659;SDS011;45534;52.690;6.268;2023-02-15T01:37:21;18.13;;;10.48;;
59659;SDS011;45534;52.690;6.268;2023-02-15T01:39:47;19.98;;;14.23;;
59659;SDS011;45534;52.690;6.268;2023-02-15T01:42:13;16.05;;;11.95;;
59659;SDS011;45534;52.690;6.268;2023-02-15T01:44:52;18.55;;;13.50;;
59659;SDS011;45534;52.690;6.268;2023-02-15T01:47:24;14.90;;;12.85;;
59659;SDS011;45534;52.690;6.268;2023-02-15T01:52:37;12.50;;;3.58;;
59659;SDS011;45534;52.690;6.268;2023-02-15T01:55:08;15.18;;;11.45;;
59659;SDS011;45534;52.690;6.268;2023-02-15T01:57:34;18.33;;;12.73;;
59659;SDS011;45534;52.690;6.268;2023-02-15T02:00:01;13.10;;;10.35;;
59659;SDS011;45534;52.690;6.268;2023-02-15T02:02:31;9.45;;;7.65;;
59659;SDS011;45534;52.690;6.268;2023-02-15T02:04:58;26.30;;;11.27;;
59659;SDS011;45534;52.690;6.268;2023-02-15T02:07:28;15.73;;;10.32;;
59659;SDS011;45534;52.690;6.268;2023-02-15T02:10:04;16.42;;;12.18;;
59659;SDS011;45534;52.690;6.268;2023-02-15T02:12:31;21.10;;;15.05;;
59659;SDS011;45534;52.690;6.268;2023-02-15T02:14:57;15.77;;;10.23;;
59659;SDS011;45534;52.690;6.268;2023-02-15T02:17:27;18.45;;;13.95;;
59659;SDS011;45534;52.690;6.268;2023-02-15T02:20:26;16.95;;;15.02;;
59659;SDS011;45534;52.690;6.268;2023-02-15T02:23:04;10.60;;;9.27;;
59659;SDS011;45534;52.690;6.268;2023-02-15T02:34:09;16.38;;;12.80;;
59659;SDS011;45534;52.690;6.268;2023-02-15T02:36:58;19.98;;;13.32;;
59659;SDS011;45534;52.690;6.268;2023-02-15T02:39:49;9.50;;;8.18;;
59659;SDS011;45534;52.690;6.268;2023-02-15T02:42:41;15.35;;;11.27;;
59659;SDS011;45534;52.690;6.268;2023-02-15T02:48:00;18.75;;;13.70;;
59659;SDS011;45534;52.690;6.268;2023-02-15T02:50:30;9.43;;;7.63;;
59659;SDS011;45534;52.690;6.268;2023-02-15T02:52:56;8.07;;;6.60;;
59659;SDS011;45534;52.690;6.268;2023-02-15T02:55:28;11.95;;;7.05;;
59659;SDS011;45534;52.690;6.268;2023-02-15T02:58:02;14.85;;;11.63;;
59659;SDS011;45534;52.690;6.268;2023-02-15T03:00:41;24.08;;;15.55;;
59659;SDS011;45534;52.690;6.268;2023-02-15T03:05:49;22.13;;;14.32;;
59659;SDS011;45534;52.690;6.268;2023-02-15T03:08:19;26.77;;;13.32;;
59659;SDS011;45534;52.690;6.268;2023-02-15T03:10:48;23.83;;;15.02;;
59659;SDS011;45534;52.690;6.268;2023-02-15T03:13:16;22.88;;;11.82;;
59659;SDS011;45534;52.690;6.268;2023-02-15T03:15:42;19.98;;;15.25;;
59659;SDS011;45534;52.690;6.268;2023-02-15T03:18:30;20.52;;;15.35;;
59659;SDS011;45534;52.690;6.268;2023-02-15T03:21:04;17.08;;;12.65;;
59659;SDS011;45534;52.690;6.268;2023-02-15T03:23:33;17.73;;;13.73;;
59659;SDS011;45534;52.690;6.268;2023-02-15T03:26:01;19.33;;;12.90;;
59659;SDS011;45534;52.690;6.268;2023-02-15T03:28:32;20.77;;;14.77;;
59659;SDS011;45534;52.690;6.268;2023-02-15T03:31:08;21.85;;;14.48;;
59659;SDS011;45534;52.690;6.268;2023-02-15T03:33:38;39.55;;;17.58;;
59659;SDS011;45534;52.690;6.268;2023-02-15T03:36:11;17.27;;;13.10;;
59659;SDS011;45534;52.690;6.268;2023-02-15T03:39:05;20.05;;;13.52;;
59659;SDS011;45534;52.690;6.268;2023-02-15T03:44:46;20.52;;;15.13;;
59659;SDS011;45534;52.690;6.268;2023-02-15T03:47:17;22.02;;;13.90;;
59659;SDS011;45534;52.690;6.268;2023-02-15T03:52:55;14.00;;;11.45;;
59659;SDS011;45534;52.690;6.268;2023-02-15T03:55:23;16.55;;;14.10;;
59659;SDS011;45534;52.690;6.268;2023-02-15T03:57:50;33.65;;;15.00;;
59659;SDS011;45534;52.690;6.268;2023-02-15T04:00:35;16.65;;;10.38;;
59659;SDS011;45534;52.690;6.268;2023-02-15T04:03:23;5.85;;;5.45;;
59659;SDS011;45534;52.690;6.268;2023-02-15T04:05:56;22.55;;;11.00;;
59659;SDS011;45534;52.690;6.268;2023-02-15T04:08:22;24.80;;;17.65;;
59659;SDS011;45534;52.690;6.268;2023-02-15T04:11:07;21.20;;;14.02;;
59659;SDS011;45534;52.690;6.268;2023-02-15T04:13:33;22.30;;;15.30;;
59659;SDS011;45534;52.690;6.268;2023-02-15T04:15:59;22.20;;;15.88;;
59659;SDS011;45534;52.690;6.268;2023-02-15T04:18:40;22.63;;;13.70;;
59659;SDS011;45534;52.690;6.268;2023-02-15T04:21:27;17.77;;;13.38;;
59659;SDS011;45534;52.690;6.268;2023-02-15T04:24:12;20.75;;;14.48;;
59659;SDS011;45534;52.690;6.268;2023-02-15T04:26:56;27.90;;;16.92;;
59659;SDS011;45534;52.690;6.268;2023-02-15T04:29:23;20.35;;;14.40;;
59659;SDS011;45534;52.690;6.268;2023-02-15T04:31:50;36.13;;;15.95;;
59659;SDS011;45534;52.690;6.268;2023-02-15T04:34:17;29.40;;;18.08;;
59659;SDS011;45534;52.690;6.268;2023-02-15T04:36:43;22.63;;;15.65;;
59659;SDS011;45534;52.690;6.268;2023-02-15T04:39:09;22.38;;;13.30;;
59659;SDS011;45534;52.690;6.268;2023-02-15T04:41:38;23.98;;;15.02;;
59659;SDS011;45534;52.690;6.268;2023-02-15T04:44:04;14.38;;;10.20;;
59659;SDS011;45534;52.690;6.268;2023-02-15T04:46:29;38.50;;;17.63;;
59659;SDS011;45534;52.690;6.268;2023-02-15T04:48:56;40.97;;;15.40;;
59659;SDS011;45534;52.690;6.268;2023-02-15T04:51:22;19.92;;;14.02;;
59659;SDS011;45534;52.690;6.268;2023-02-15T04:53:48;29.20;;;18.83;;
59659;SDS011;45534;52.690;6.268;2023-02-15T04:56:14;15.15;;;10.95;;
59659;SDS011;45534;52.690;6.268;2023-02-15T04:58:40;39.10;;;14.98;;
59659;SDS011;45534;52.690;6.268;2023-02-15T05:01:08;24.13;;;13.65;;
59659;SDS011;45534;52.690;6.268;2023-02-15T05:03:34;19.35;;;13.73;;
59659;SDS011;45534;52.690;6.268;2023-02-15T05:06:00;28.67;;;17.20;;
59659;SDS011;45534;52.690;6.268;2023-02-15T05:08:26;26.30;;;17.33;;
59659;SDS011;45534;52.690;6.268;2023-02-15T05:10:52;26.80;;;14.23;;
59659;SDS011;45534;52.690;6.268;2023-02-15T05:13:17;26.80;;;15.90;;
59659;SDS011;45534;52.690;6.268;2023-02-15T05:15:50;21.27;;;13.82;;
59659;SDS011;45534;52.690;6.268;2023-02-15T05:18:17;22.73;;;11.30;;
59659;SDS011;45534;52.690;6.268;2023-02-15T05:20:44;15.20;;;10.77;;
59659;SDS011;45534;52.690;6.268;2023-02-15T05:23:10;28.38;;;7.72;;
59659;SDS011;45534;52.690;6.268;2023-02-15T05:25:36;4.20;;;3.80;;
59659;SDS011;45534;52.690;6.268;2023-02-15T05:28:20;19.92;;;14.50;;
59659;SDS011;45534;52.690;6.268;2023-02-15T05:30:50;30.52;;;19.17;;
59659;SDS011;45534;52.690;6.268;2023-02-15T05:33:27;41.20;;;21.63;;
59659;SDS011;45534;52.690;6.268;2023-02-15T05:35:53;28.55;;;19.67;;
59659;SDS011;45534;52.690;6.268;2023-02-15T05:38:19;33.78;;;18.63;;
59659;SDS011;45534;52.690;6.268;2023-02-15T05:40:44;30.38;;;19.55;;
59659;SDS011;45534;52.690;6.268;2023-02-15T05:43:10;26.55;;;17.85;;
59659;SDS011;45534;52.690;6.268;2023-02-15T05:45:36;26.13;;;16.48;;
59659;SDS011;45534;52.690;6.268;2023-02-15T05:48:01;26.05;;;14.30;;
59659;SDS011;45534;52.690;6.268;2023-02-15T05:50:27;29.48;;;17.55;;
59659;SDS011;45534;52.690;6.268;2023-02-15T05:52:53;25.80;;;15.15;;
59659;SDS011;45534;52.690;6.268;2023-02-15T05:55:19;34.30;;;19.35;;
59659;SDS011;45534;52.690;6.268;2023-02-15T05:57:44;33.58;;;19.35;;
59659;SDS011;45534;52.690;6.268;2023-02-15T06:00:11;45.63;;;18.42;;
59659;SDS011;45534;52.690;6.268;2023-02-15T06:02:37;30.05;;;14.30;;
59659;SDS011;45534;52.690;6.268;2023-02-15T06:05:04;21.25;;;13.45;;
59659;SDS011;45534;52.690;6.268;2023-02-15T06:07:30;29.48;;;15.10;;
59659;SDS011;45534;52.690;6.268;2023-02-15T06:09:56;28.38;;;18.63;;
59659;SDS011;45534;52.690;6.268;2023-02-15T06:12:22;25.35;;;15.63;;
59659;SDS011;45534;52.690;6.268;2023-02-15T06:14:48;23.30;;;15.85;;
59659;SDS011;45534;52.690;6.268;2023-02-15T06:17:13;27.25;;;18.65;;
59659;SDS011;45534;52.690;6.268;2023-02-15T06:19:39;30.90;;;18.25;;
59659;SDS011;45534;52.690;6.268;2023-02-15T06:22:05;23.83;;;17.05;;
59659;SDS011;45534;52.690;6.268;2023-02-15T06:24:31;32.40;;;16.73;;
59659;SDS011;45534;52.690;6.268;2023-02-15T06:26:57;29.52;;;18.00;;
59659;SDS011;45534;52.690;6.268;2023-02-15T06:29:23;31.60;;;17.90;;
59659;SDS011;45534;52.690;6.268;2023-02-15T06:31:48;35.50;;;23.70;;
59659;SDS011;45534;52.690;6.268;2023-02-15T06:34:14;34.22;;;20.13;;
59659;SDS011;45534;52.690;6.268;2023-02-15T06:36:40;37.67;;;22.95;;
59659;SDS011;45534;52.690;6.268;2023-02-15T06:39:06;37.22;;;20.75;;
59659;SDS011;45534;52.690;6.268;2023-02-15T06:41:33;37.53;;;20.33;;
59659;SDS011;45534;52.690;6.268;2023-02-15T06:43:59;34.30;;;20.80;;
59659;SDS011;45534;52.690;6.268;2023-02-15T06:46:25;39.00;;;22.08;;
59659;SDS011;45534;52.690;6.268;2023-02-15T06:48:50;32.40;;;20.00;;
59659;SDS011;45534;52.690;6.268;2023-02-15T06:51:16;34.55;;;19.73;;
59659;SDS011;45534;52.690;6.268;2023-02-15T06:53:42;27.88;;;16.05;;
59659;SDS011;45534;52.690;6.268;2023-02-15T06:56:08;29.83;;;17.20;;
59659;SDS011;45534;52.690;6.268;2023-02-15T06:58:35;28.88;;;19.00;;
59659;SDS011;45534;52.690;6.268;2023-02-15T07:01:02;33.35;;;23.45;;
59659;SDS011;45534;52.690;6.268;2023-02-15T07:03:28;28.80;;;18.83;;
59659;SDS011;45534;52.690;6.268;2023-02-15T07:05:55;25.80;;;16.13;;
59659;SDS011;45534;52.690;6.268;2023-02-15T07:08:21;27.40;;;16.10;;
59659;SDS011;45534;52.690;6.268;2023-02-15T07:10:48;29.27;;;18.52;;
59659;SDS011;45534;52.690;6.268;2023-02-15T07:13:14;24.42;;;15.68;;
59659;SDS011;45534;52.690;6.268;2023-02-15T07:15:40;27.25;;;15.98;;
59659;SDS011;45534;52.690;6.268;2023-02-15T07:18:06;33.90;;;18.40;;
59659;SDS011;45534;52.690;6.268;2023-02-15T07:20:32;30.35;;;16.65;;
59659;SDS011;45534;52.690;6.268;2023-02-15T07:23:00;32.63;;;16.90;;
59659;SDS011;45534;52.690;6.268;2023-02-15T07:25:26;31.38;;;18.50;;
59659;SDS011;45534;52.690;6.268;2023-02-15T07:27:56;25.30;;;16.02;;
59659;SDS011;45534;52.690;6.268;2023-02-15T07:30:23;27.70;;;17.73;;
59659;SDS011;45534;52.690;6.268;2023-02-15T07:32:48;32.72;;;17.83;;
59659;SDS011;45534;52.690;6.268;2023-02-15T07:35:33;27.00;;;16.92;;
59659;SDS011;45534;52.690;6.268;2023-02-15T07:37:59;23.90;;;15.23;;
59659;SDS011;45534;52.690;6.268;2023-02-15T07:40:25;23.17;;;15.35;;
59659;SDS011;45534;52.690;6.268;2023-02-15T07:42:51;28.50;;;16.85;;
59659;SDS011;45534;52.690;6.268;2023-02-15T07:45:19;31.08;;;14.25;;
59659;SDS011;45534;52.690;6.268;2023-02-15T07:47:45;31.35;;;17.13;;
59659;SDS011;45534;52.690;6.268;2023-02-15T07:50:12;30.27;;;17.27;;
59659;SDS011;45534;52.690;6.268;2023-02-15T07:52:38;46.78;;;20.58;;
59659;SDS011;45534;52.690;6.268;2023-02-15T07:55:04;35.75;;;18.00;;
59659;SDS011;45534;52.690;6.268;2023-02-15T07:57:30;37.33;;;20.65;;
59659;SDS011;45534;52.690;6.268;2023-02-15T07:59:55;29.42;;;19.02;;
59659;SDS011;45534;52.690;6.268;2023-02-15T08:02:21;31.17;;;20.00;;
59659;SDS011;45534;52.690;6.268;2023-02-15T08:04:47;32.28;;;20.85;;
59659;SDS011;45534;52.690;6.268;2023-02-15T08:07:12;42.95;;;23.67;;
59659;SDS011;45534;52.690;6.268;2023-02-15T08:09:38;37.60;;;22.73;;
59659;SDS011;45534;52.690;6.268;2023-02-15T08:12:04;35.35;;;21.55;;
59659;SDS011;45534;52.690;6.268;2023-02-15T08:14:31;31.08;;;18.27;;
59659;SDS011;45534;52.690;6.268;2023-02-15T08:16:58;34.05;;;18.48;;
59659;SDS011;45534;52.690;6.268;2023-02-15T08:19:28;36.60;;;20.30;;
59659;SDS011;45534;52.690;6.268;2023-02-15T08:21:56;38.92;;;22.02;;
59659;SDS011;45534;52.690;6.268;2023-02-15T08:24:28;40.33;;;24.60;;
59659;SDS011;45534;52.690;6.268;2023-02-15T08:26:58;35.38;;;23.35;;
59659;SDS011;45534;52.690;6.268;2023-02-15T08:29:26;29.90;;;17.63;;
59659;SDS011;45534;52.690;6.268;2023-02-15T08:31:53;43.05;;;23.45;;
59659;SDS011;45534;52.690;6.268;2023-02-15T08:34:20;30.65;;;19.15;;
59659;SDS011;45534;52.690;6.268;2023-02-15T08:36:46;39.78;;;23.67;;
59659;SDS011;45534;52.690;6.268;2023-02-15T08:39:13;47.38;;;20.10;;
59659;SDS011;45534;52.690;6.268;2023-02-15T08:41:42;38.90;;;20.60;;
59659;SDS011;45534;52.690;6.268;2023-02-15T08:44:09;44.42;;;26.52;;
59659;SDS011;45534;52.690;6.268;2023-02-15T08:46:36;41.38;;;25.73;;
59659;SDS011;45534;52.690;6.268;2023-02-15T08:49:04;43.38;;;25.35;;
59659;SDS011;45534;52.690;6.268;2023-02-15T08:51:32;37.55;;;23.85;;
59659;SDS011;45534;52.690;6.268;2023-02-15T08:54:00;41.97;;;26.75;;
59659;SDS011;45534;52.690;6.268;2023-02-15T08:56:30;38.72;;;22.27;;
59659;SDS011;45534;52.690;6.268;2023-02-15T08:59:02;55.05;;;28.85;;
59659;SDS011;45534;52.690;6.268;2023-02-15T09:01:29;38.80;;;24.40;;
59659;SDS011;45534;52.690;6.268;2023-02-15T09:03:57;47.65;;;27.27;;
59659;SDS011;45534;52.690;6.268;2023-02-15T09:06:24;40.63;;;28.00;;
59659;SDS011;45534;52.690;6.268;2023-02-15T09:08:50;37.03;;;25.75;;
59659;SDS011;45534;52.690;6.268;2023-02-15T09:11:23;42.03;;;25.60;;
59659;SDS011;45534;52.690;6.268;2023-02-15T09:13:51;57.92;;;24.13;;
59659;SDS011;45534;52.690;6.268;2023-02-15T09:16:18;48.58;;;27.52;;
59659;SDS011;45534;52.690;6.268;2023-02-15T09:18:45;42.13;;;29.75;;
59659;SDS011;45534;52.690;6.268;2023-02-15T09:21:12;50.80;;;34.33;;
59659;SDS011;45534;52.690;6.268;2023-02-15T09:23:39;41.40;;;24.98;;
59659;SDS011;45534;52.690;6.268;2023-02-15T09:26:08;42.97;;;24.83;;
59659;SDS011;45534;52.690;6.268;2023-02-15T09:28:35;44.50;;;27.58;;
59659;SDS011;45534;52.690;6.268;2023-02-15T09:31:16;38.85;;;25.55;;
59659;SDS011;45534;52.690;6.268;2023-02-15T09:33:44;43.22;;;26.58;;
59659;SDS011;45534;52.690;6.268;2023-02-15T09:36:21;41.50;;;26.20;;
59659;SDS011;45534;52.690;6.268;2023-02-15T09:38:56;40.53;;;25.95;;
59659;SDS011;45534;52.690;6.268;2023-02-15T09:52:19;40.10;;;23.15;;
59659;SDS011;45534;52.690;6.268;2023-02-15T10:03:36;44.65;;;31.40;;
59659;SDS011;45534;52.690;6.268;2023-02-15T10:06:12;47.65;;;29.63;;
59659;SDS011;45534;52.690;6.268;2023-02-15T10:25:36;36.10;;;21.92;;
59659;SDS011;45534;52.690;6.268;2023-02-15T10:28:45;30.40;;;21.40;;
59659;SDS011;45534;52.690;6.268;2023-02-15T10:50:29;33.58;;;20.55;;
59659;SDS011;45534;52.690;6.268;2023-02-15T10:56:05;47.63;;;23.83;;
59659;SDS011;45534;52.690;6.268;2023-02-15T11:01:28;31.17;;;18.35;;
59659;SDS011;45534;52.690;6.268;2023-02-15T11:07:06;38.55;;;24.13;;
59659;SDS011;45534;52.690;6.268;2023-02-15T11:09:41;39.83;;;23.25;;
59659;SDS011;45534;52.690;6.268;2023-02-15T11:12:18;35.65;;;21.58;;
59659;SDS011;45534;52.690;6.268;2023-02-15T11:17:24;31.83;;;18.95;;
59659;SDS011;45534;52.690;6.268;2023-02-15T11:22:53;29.83;;;18.67;;
59659;SDS011;45534;52.690;6.268;2023-02-15T11:25:22;30.90;;;20.75;;
59659;SDS011;45534;52.690;6.268;2023-02-15T11:27:57;30.73;;;20.15;;
59659;SDS011;45534;52.690;6.268;2023-02-15T11:30:27;30.80;;;19.17;;
59659;SDS011;45534;52.690;6.268;2023-02-15T11:33:03;37.05;;;22.58;;
59659;SDS011;45534;52.690;6.268;2023-02-15T11:35:42;30.30;;;20.05;;
59659;SDS011;45534;52.690;6.268;2023-02-15T11:38:27;31.23;;;21.83;;
59659;SDS011;45534;52.690;6.268;2023-02-15T11:40:57;35.78;;;25.05;;
59659;SDS011;45534;52.690;6.268;2023-02-15T11:43:44;37.38;;;23.35;;
59659;SDS011;45534;52.690;6.268;2023-02-15T11:46:16;36.00;;;20.38;;
59659;SDS011;45534;52.690;6.268;2023-02-15T11:48:43;24.83;;;17.60;;
59659;SDS011;45534;52.690;6.268;2023-02-15T11:51:11;30.23;;;19.05;;
59659;SDS011;45534;52.690;6.268;2023-02-15T11:53:41;37.22;;;18.70;;
59659;SDS011;45534;52.690;6.268;2023-02-15T11:56:24;34.45;;;21.83;;
59659;SDS011;45534;52.690;6.268;2023-02-15T12:01:35;40.22;;;21.40;;
59659;SDS011;45534;52.690;6.268;2023-02-15T12:09:48;23.55;;;17.52;;
59659;SDS011;45534;52.690;6.268;2023-02-15T12:12:29;36.17;;;19.33;;
59659;SDS011;45534;52.690;6.268;2023-02-15T12:15:00;32.40;;;21.35;;
59659;SDS011;45534;52.690;6.268;2023-02-15T12:17:33;18.25;;;13.13;;
59659;SDS011;45534;52.690;6.268;2023-02-15T12:20:46;32.00;;;20.15;;
59659;SDS011;45534;52.690;6.268;2023-02-15T12:23:06;22.20;;;16.23;;
59659;SDS011;45534;52.690;6.268;2023-02-15T12:25:53;20.80;;;16.08;;
59659;SDS011;45534;52.690;6.268;2023-02-15T12:28:33;24.48;;;15.73;;
59659;SDS011;45534;52.690;6.268;2023-02-15T12:31:03;30.92;;;14.15;;
59659;SDS011;45534;52.690;6.268;2023-02-15T12:33:36;29.10;;;19.88;;
59659;SDS011;45534;52.690;6.268;2023-02-15T12:36:18;16.73;;;13.88;;
59659;SDS011;45534;52.690;6.268;2023-02-15T12:44:54;19.13;;;12.40;;
59659;SDS011;45534;52.690;6.268;2023-02-15T12:47:37;16.80;;;10.38;;
59659;SDS011;45534;52.690;6.268;2023-02-15T12:50:07;21.63;;;14.68;;
59659;SDS011;45534;52.690;6.268;2023-02-15T12:52:42;22.42;;;15.73;;
59659;SDS011;45534;52.690;6.268;2023-02-15T12:58:04;19.83;;;16.42;;
59659;SDS011;45534;52.690;6.268;2023-02-15T13:00:33;37.03;;;20.50;;
59659;SDS011;45534;52.690;6.268;2023-02-15T13:02:59;22.35;;;10.98;;
59659;SDS011;45534;52.690;6.268;2023-02-15T13:05:30;24.40;;;14.52;;
59659;SDS011;45534;52.690;6.268;2023-02-15T13:08:12;22.85;;;13.20;;
59659;SDS011;45534;52.690;6.268;2023-02-15T13:10:58;27.35;;;19.30;;
59659;SDS011;45534;52.690;6.268;2023-02-15T13:13:33;25.48;;;14.07;;
59659;SDS011;45534;52.690;6.268;2023-02-15T13:16:10;17.65;;;12.25;;
59659;SDS011;45534;52.690;6.268;2023-02-15T13:18:42;27.17;;;15.93;;
59659;SDS011;45534;52.690;6.268;2023-02-15T13:21:18;25.17;;;15.25;;
59659;SDS011;45534;52.690;6.268;2023-02-15T13:24:06;20.50;;;12.23;;
59659;SDS011;45534;52.690;6.268;2023-02-15T13:26:42;28.98;;;16.17;;
59659;SDS011;45534;52.690;6.268;2023-02-15T13:29:12;17.90;;;14.25;;
59659;SDS011;45534;52.690;6.268;2023-02-15T13:31:49;27.83;;;14.77;;
59659;SDS011;45534;52.690;6.268;2023-02-15T13:34:17;16.17;;;9.95;;
59659;SDS011;45534;52.690;6.268;2023-02-15T13:42:35;21.23;;;11.40;;
59659;SDS011;45534;52.690;6.268;2023-02-15T13:50:55;20.77;;;10.80;;
59659;SDS011;45534;52.690;6.268;2023-02-15T14:01:55;28.35;;;18.25;;
59659;SDS011;45534;52.690;6.268;2023-02-15T14:07:24;29.83;;;20.48;;
59659;SDS011;45534;52.690;6.268;2023-02-15T14:16:10;19.27;;;13.88;;
59659;SDS011;45534;52.690;6.268;2023-02-15T14:18:55;28.15;;;13.63;;
59659;SDS011;45534;52.690;6.268;2023-02-15T14:26:50;31.33;;;15.50;;
59659;SDS011;45534;52.690;6.268;2023-02-15T14:32:27;12.65;;;10.45;;
59659;SDS011;45534;52.690;6.268;2023-02-15T14:34:58;21.73;;;14.43;;
59659;SDS011;45534;52.690;6.268;2023-02-15T14:37:34;20.02;;;14.70;;
59659;SDS011;45534;52.690;6.268;2023-02-15T14:40:34;33.92;;;20.23;;
59659;SDS011;45534;52.690;6.268;2023-02-15T14:45:59;27.45;;;14.23;;
59659;SDS011;45534;52.690;6.268;2023-02-15T14:48:46;20.48;;;11.85;;
59659;SDS011;45534;52.690;6.268;2023-02-15T14:54:07;29.08;;;15.15;;
59659;SDS011;45534;52.690;6.268;2023-02-15T14:56:34;23.75;;;16.02;;
59659;SDS011;45534;52.690;6.268;2023-02-15T14:59:21;28.52;;;19.15;;
59659;SDS011;45534;52.690;6.268;2023-02-15T15:02:03;19.45;;;11.23;;
59659;SDS011;45534;52.690;6.268;2023-02-15T15:04:43;19.50;;;13.05;;
59659;SDS011;45534;52.690;6.268;2023-02-15T15:07:21;20.83;;;11.65;;
59659;SDS011;45534;52.690;6.268;2023-02-15T15:09:57;20.00;;;12.45;;
59659;SDS011;45534;52.690;6.268;2023-02-15T15:12:42;19.77;;;12.48;;
59659;SDS011;45534;52.690;6.268;2023-02-15T15:15:32;20.83;;;13.35;;
59659;SDS011;45534;52.690;6.268;2023-02-15T15:18:10;19.25;;;11.07;;
59659;SDS011;45534;52.690;6.268;2023-02-15T15:20:55;28.38;;;15.02;;
59659;SDS011;45534;52.690;6.268;2023-02-15T15:42:43;23.63;;;15.80;;
59659;SDS011;45534;52.690;6.268;2023-02-15T15:53:47;43.45;;;21.98;;
59659;SDS011;45534;52.690;6.268;2023-02-15T15:56:21;24.70;;;15.50;;
59659;SDS011;45534;52.690;6.268;2023-02-15T15:58:58;35.33;;;18.90;;
59659;SDS011;45534;52.690;6.268;2023-02-15T16:01:28;39.92;;;22.45;;
59659;SDS011;45534;52.690;6.268;2023-02-15T16:03:57;38.72;;;21.30;;
59659;SDS011;45534;52.690;6.268;2023-02-15T16:06:34;31.63;;;20.88;;
59659;SDS011;45534;52.690;6.268;2023-02-15T16:11:56;36.30;;;20.15;;
59659;SDS011;45534;52.690;6.268;2023-02-15T16:14:37;36.60;;;22.15;;
59659;SDS011;45534;52.690;6.268;2023-02-15T16:17:06;32.22;;;17.52;;
59659;SDS011;45534;52.690;6.268;2023-02-15T16:19:41;25.17;;;17.27;;
59659;SDS011;45534;52.690;6.268;2023-02-15T16:22:10;37.72;;;18.27;;
59659;SDS011;45534;52.690;6.268;2023-02-15T16:27:40;28.40;;;19.77;;
59659;SDS011;45534;52.690;6.268;2023-02-15T16:32:46;35.53;;;20.83;;
59659;SDS011;45534;52.690;6.268;2023-02-15T16:35:16;40.25;;;18.67;;
59659;SDS011;45534;52.690;6.268;2023-02-15T16:37:43;25.00;;;16.07;;
59659;SDS011;45534;52.690;6.268;2023-02-15T16:42:59;29.33;;;17.87;;
59659;SDS011;45534;52.690;6.268;2023-02-15T16:45:27;32.03;;;17.35;;
59659;SDS011;45534;52.690;6.268;2023-02-15T16:47:57;31.02;;;18.08;;
59659;SDS011;45534;52.690;6.268;2023-02-15T16:50:32;38.65;;;20.65;;
59659;SDS011;45534;52.690;6.268;2023-02-15T16:52:59;38.40;;;19.50;;
59659;SDS011;45534;52.690;6.268;2023-02-15T16:55:27;33.72;;;20.23;;
59659;SDS011;45534;52.690;6.268;2023-02-15T16:58:00;28.48;;;17.20;;
59659;SDS011;45534;52.690;6.268;2023-02-15T17:00:30;32.63;;;21.83;;
59659;SDS011;45534;52.690;6.268;2023-02-15T17:03:03;37.58;;;20.77;;
59659;SDS011;45534;52.690;6.268;2023-02-15T17:05:32;32.30;;;19.75;;
59659;SDS011;45534;52.690;6.268;2023-02-15T17:08:16;32.08;;;18.73;;
59659;SDS011;45534;52.690;6.268;2023-02-15T17:10:42;37.95;;;22.48;;
59659;SDS011;45534;52.690;6.268;2023-02-15T17:13:15;39.30;;;19.40;;
59659;SDS011;45534;52.690;6.268;2023-02-15T17:18:16;26.58;;;17.73;;
59659;SDS011;45534;52.690;6.268;2023-02-15T17:20:45;27.65;;;16.42;;
59659;SDS011;45534;52.690;6.268;2023-02-15T17:25:44;34.85;;;22.02;;
59659;SDS011;45534;52.690;6.268;2023-02-15T17:28:17;45.75;;;21.05;;
59659;SDS011;45534;52.690;6.268;2023-02-15T17:30:49;24.55;;;16.88;;
59659;SDS011;45534;52.690;6.268;2023-02-15T17:33:26;33.22;;;19.60;;
59659;SDS011;45534;52.690;6.268;2023-02-15T17:38:37;36.97;;;22.48;;
59659;SDS011;45534;52.690;6.268;2023-02-15T17:41:04;36.20;;;18.90;;
59659;SDS011;45534;52.690;6.268;2023-02-15T17:43:30;32.78;;;19.92;;
59659;SDS011;45534;52.690;6.268;2023-02-15T17:45:56;63.15;;;26.75;;
59659;SDS011;45534;52.690;6.268;2023-02-15T17:48:25;38.92;;;19.92;;
59659;SDS011;45534;52.690;6.268;2023-02-15T17:51:01;39.50;;;20.23;;
59659;SDS011;45534;52.690;6.268;2023-02-15T17:53:28;26.88;;;17.25;;
59659;SDS011;45534;52.690;6.268;2023-02-15T17:55:54;43.53;;;19.27;;
59659;SDS011;45534;52.690;6.268;2023-02-15T17:58:20;31.65;;;18.15;;
59659;SDS011;45534;52.690;6.268;2023-02-15T18:00:54;28.55;;;17.17;;
59659;SDS011;45534;52.690;6.268;2023-02-15T18:06:26;33.78;;;20.45;;
59659;SDS011;45534;52.690;6.268;2023-02-15T18:09:12;42.55;;;23.70;;